Time;durP1;ratioP1;P1;durP2;ratioP2;P2;SDS_P1;SDS_P2;PMS_P1;PMS_P2;Temp;Humidity;BMP_temperature;BMP_pressure;BME280_temperature;BME280_humidity;BME280_pressure;Samples;Min_cycle;Max_cycle;Signal;HPM_P1;HPM_P2
2021/04/28 00:02:19;;;;;;;7.13;5.90;;;;;;;6.83;65.76;97011.13;5093129;28;20245;-66
2021/04/28 00:04:45;;;;;;;9.43;6.27;;;;;;;6.72;66.50;97014.50;5093210;28;20241;-66
2021/04/28 00:07:11;;;;;;;6.87;5.90;;;;;;;6.67;66.85;97011.38;5096382;28;20218;-66
2021/04/28 00:09:37;;;;;;;7.63;5.67;;;;;;;6.62;66.70;97013.47;5097150;28;20218;-66
2021/04/28 00:12:05;;;;;;;6.50;5.37;;;;;;;6.53;67.59;97001.00;5096955;28;20563;-66
2021/04/28 00:14:31;;;;;;;7.37;5.37;;;;;;;6.54;67.55;97007.91;5096817;28;20256;-66
2021/04/28 00:16:57;;;;;;;7.60;5.40;;;;;;;6.56;66.84;97006.03;5096535;28;20203;-66
2021/04/28 00:19:24;;;;;;;8.20;5.50;;;;;;;6.58;67.49;97009.41;5095193;28;20569;-66
2021/04/28 00:21:50;;;;;;;7.20;5.90;;;;;;;6.58;66.05;97008.53;5096766;28;20221;-66
2021/04/28 00:24:16;;;;;;;6.93;5.40;;;;;;;6.57;66.54;97004.25;5096433;28;20205;-66
2021/04/28 00:26:42;;;;;;;7.20;6.03;;;;;;;6.54;67.20;97004.47;5096466;28;20215;-65
2021/04/28 00:29:08;;;;;;;6.80;5.67;;;;;;;6.50;66.81;96995.97;5096373;28;20259;-65
2021/04/28 00:31:35;;;;;;;7.97;5.43;;;;;;;6.46;67.15;96999.75;5096386;28;20210;-65
2021/04/28 00:34:01;;;;;;;7.47;5.67;;;;;;;6.43;67.62;96992.13;5096483;28;20211;-66
2021/04/28 00:36:28;;;;;;;7.40;5.40;;;;;;;6.39;67.05;96995.91;5096336;28;20211;-65
2021/04/28 00:38:54;;;;;;;6.87;5.87;;;;;;;6.34;68.16;96992.75;5096540;28;20210;-67
2021/04/28 00:41:20;;;;;;;7.90;5.47;;;;;;;6.32;68.23;96999.91;5096477;28;20236;-66
2021/04/28 00:43:47;;;;;;;7.97;6.13;;;;;;;6.30;68.71;96988.66;5096338;28;20214;-65
2021/04/28 00:46:13;;;;;;;6.93;5.23;;;;;;;6.29;68.43;96981.75;5094525;28;20280;-63
2021/04/28 00:48:40;;;;;;;7.60;5.67;;;;;;;6.30;68.31;96986.03;5096310;28;20207;-64
2021/04/28 00:51:07;;;;;;;7.80;5.50;;;;;;;6.29;67.95;96983.53;5095865;28;20210;-64
2021/04/28 00:53:34;;;;;;;6.87;6.07;;;;;;;6.26;68.07;96984.59;5096127;28;20236;-63
2021/04/28 00:56:01;;;;;;;7.37;5.90;;;;;;;6.24;69.07;96983.03;5096089;28;20213;-63
2021/04/28 00:58:28;;;;;;;7.70;5.77;;;;;;;6.24;68.29;96980.41;5095697;28;20263;-64
2021/04/28 01:00:56;;;;;;;7.10;5.83;;;;;;;6.24;68.20;96975.97;5095775;28;20255;-65
2021/04/28 01:03:26;;;;;;;7.20;5.60;;;;;;;6.24;69.48;96975.97;5096007;28;20217;-65
2021/04/28 01:05:54;;;;;;;6.63;5.80;;;;;;;6.20;69.95;96974.53;5095912;28;20237;-65
2021/04/28 01:08:21;;;;;;;7.03;5.70;;;;;;;6.19;70.31;96974.63;5095926;28;20222;-66
2021/04/28 01:10:49;;;;;;;9.47;6.17;;;;;;;6.14;69.98;96974.09;5094350;28;20218;-65
2021/04/28 01:13:15;;;;;;;7.33;5.60;;;;;;;6.08;70.64;96974.53;5095528;28;20245;-66
2021/04/28 01:15:41;;;;;;;7.00;5.60;;;;;;;5.98;71.65;96974.34;5095673;28;20210;-65
2021/04/28 01:18:08;;;;;;;7.53;5.23;;;;;;;5.99;71.14;96968.13;5094358;28;20675;-66
2021/04/28 01:20:37;;;;;;;8.53;5.53;;;;;;;6.04;69.86;96973.91;5095887;28;20234;-68
2021/04/28 01:23:05;;;;;;;7.07;5.07;;;;;;;6.06;69.77;96965.94;5095207;28;20721;-66
2021/04/28 01:25:31;;;;;;;7.33;5.67;;;;;;;6.09;69.65;96971.81;5095376;28;20241;-66
2021/04/28 01:28:02;;;;;;;7.03;5.03;;;;;;;6.10;69.57;96968.22;5095569;28;20216;-65
2021/04/28 01:30:32;;;;;;;6.50;5.33;;;;;;;6.10;69.25;96973.47;5095330;28;20221;-65
2021/04/28 01:32:59;;;;;;;6.87;5.43;;;;;;;6.05;69.86;96970.34;5095475;28;20218;-65
2021/04/28 01:35:26;;;;;;;6.23;5.63;;;;;;;6.05;69.57;96967.72;5095615;28;20210;-65
2021/04/28 01:37:54;;;;;;;7.43;5.17;;;;;;;6.05;70.30;96966.88;5093781;28;20624;-64
2021/04/28 01:40:23;;;;;;;7.00;5.33;;;;;;;6.09;69.63;96971.81;5095019;28;20217;-65
2021/04/28 01:42:50;;;;;;;7.07;5.50;;;;;;;6.05;68.59;96970.34;5095417;28;20271;-64
2021/04/28 01:45:18;;;;;;;8.47;5.13;;;;;;;6.05;69.10;96972.97;5095461;28;20240;-65
2021/04/28 01:47:44;;;;;;;7.00;5.00;;;;;;;6.01;69.56;96970.66;5094737;28;20209;-65
2021/04/28 01:50:13;;;;;;;6.73;5.53;;;;;;;6.03;69.48;96968.75;5095052;28;20210;-66
2021/04/28 01:52:42;;;;;;;7.50;5.53;;;;;;;6.00;69.01;96969.00;5095024;28;20217;-65
2021/04/28 01:55:09;;;;;;;8.13;5.53;;;;;;;5.92;70.04;96966.88;5094990;28;20218;-65
2021/04/28 01:57:37;;;;;;;6.40;5.33;;;;;;;5.83;70.41;96975.41;5094754;28;20208;-65
2021/04/28 02:00:07;;;;;;;6.97;5.93;;;;;;;5.73;71.94;96970.88;5094620;28;20582;-64
2021/04/28 02:02:34;;;;;;;6.40;5.27;;;;;;;5.65;72.52;96971.38;5094493;28;20227;-64
2021/04/28 02:05:01;;;;;;;7.33;5.70;;;;;;;5.63;72.68;96964.56;5093210;28;20238;-65
2021/04/28 02:07:27;;;;;;;6.63;5.57;;;;;;;5.57;73.56;96957.94;5094475;28;20228;-65
2021/04/28 02:09:53;;;;;;;6.40;5.47;;;;;;;5.67;72.85;96969.47;5094545;28;20217;-65
2021/04/28 02:12:19;;;;;;;7.60;6.00;;;;;;;5.67;72.42;96966.88;5094972;28;20224;-65
2021/04/28 02:14:49;;;;;;;7.63;6.30;;;;;;;5.65;73.48;96971.38;5095080;28;20246;-65
2021/04/28 02:17:16;;;;;;;7.50;5.77;;;;;;;5.64;72.68;96963.63;5094708;28;20228;-65
2021/04/28 02:19:43;;;;;;;7.93;5.53;;;;;;;5.57;73.88;96965.81;5094491;28;20675;-65
2021/04/28 02:22:09;;;;;;;7.10;5.73;;;;;;;5.55;73.84;96959.84;5094691;28;20209;-65
2021/04/28 02:24:36;;;;;;;6.70;5.90;;;;;;;5.56;73.95;96956.25;5094192;28;20247;-65
2021/04/28 02:27:02;;;;;;;7.40;5.83;;;;;;;5.59;73.74;96956.06;5094459;28;20476;-65
2021/04/28 02:29:28;;;;;;;8.27;6.00;;;;;;;5.56;73.48;96956.25;5092525;28;20209;-64
2021/04/28 02:31:55;;;;;;;6.67;5.90;;;;;;;5.55;73.30;96951.97;5094372;28;20573;-64
2021/04/28 02:34:21;;;;;;;8.47;5.60;;;;;;;5.52;73.65;96943.47;5094221;28;20208;-64
2021/04/28 02:36:50;;;;;;;7.00;5.93;;;;;;;5.45;73.95;96943.03;5093948;28;20291;-63
2021/04/28 02:39:20;;;;;;;8.70;5.87;;;;;;;5.42;73.36;96943.28;5094137;28;20221;-64
2021/04/28 02:41:47;;;;;;;7.07;5.87;;;;;;;5.35;74.48;96939.41;5094017;28;20213;-65
2021/04/28 02:44:16;;;;;;;8.10;6.17;;;;;;;5.33;75.47;96938.66;5093997;28;20573;-66
2021/04/28 02:46:42;;;;;;;7.40;6.17;;;;;;;5.26;75.90;96937.38;5093480;28;20229;-66
2021/04/28 02:49:10;;;;;;;9.07;6.60;;;;;;;5.13;77.11;96947.00;5093905;28;20221;-66
2021/04/28 02:51:38;;;;;;;7.43;5.97;;;;;;;5.17;76.13;96938.00;5093861;28;20216;-66
2021/04/28 02:54:06;;;;;;;7.87;5.87;;;;;;;5.16;77.10;96941.56;5093613;28;20682;-65
2021/04/28 02:56:32;;;;;;;7.67;6.07;;;;;;;5.19;76.91;96938.72;5092268;28;20205;-64
2021/04/28 02:59:00;;;;;;;7.03;6.23;;;;;;;5.19;76.25;96946.59;5094048;28;20220;-65
2021/04/28 03:01:27;;;;;;;6.47;5.30;;;;;;;5.23;76.57;96947.22;5093714;28;20205;-64
2021/04/28 03:03:54;;;;;;;6.13;5.23;;;;;;;5.27;75.45;96939.06;5093321;28;20218;-65
2021/04/28 03:06:22;;;;;;;7.07;6.27;;;;;;;5.32;76.48;96942.19;5093556;28;20232;-65
2021/04/28 03:08:48;;;;;;;8.07;6.70;;;;;;;5.33;76.71;96938.66;5093607;28;20220;-64
2021/04/28 03:11:15;;;;;;;7.67;5.60;;;;;;;5.35;75.95;96931.53;5093243;28;20659;-64
2021/04/28 03:13:42;;;;;;;8.13;6.13;;;;;;;5.41;76.32;96941.59;5093063;28;20239;-64
2021/04/28 03:16:08;;;;;;;6.20;5.60;;;;;;;5.39;76.10;96946.13;5093407;28;20213;-64
2021/04/28 03:18:36;;;;;;;7.37;5.70;;;;;;;5.43;76.57;96938.88;5093173;28;20216;-64
2021/04/28 03:21:02;;;;;;;11.57;5.93;;;;;;;5.46;76.64;96938.66;5091774;28;20207;-65
2021/04/28 03:23:29;;;;;;;6.43;5.50;;;;;;;5.47;76.72;96941.19;5093150;28;20743;-66
2021/04/28 03:25:55;;;;;;;8.27;6.23;;;;;;;5.46;76.85;96944.75;5093314;28;20237;-66
2021/04/28 03:28:21;;;;;;;8.83;6.90;;;;;;;5.49;76.45;96935.84;5093304;28;20231;-65
2021/04/28 03:30:47;;;;;;;6.40;5.30;;;;;;;5.49;77.23;96935.84;5093458;28;20210;-65
2021/04/28 03:33:13;;;;;;;7.27;5.97;;;;;;;5.53;77.41;96938.16;5093241;28;20685;-65
2021/04/28 03:35:39;;;;;;;7.97;5.70;;;;;;;5.49;77.63;96936.66;5093324;28;20216;-65
2021/04/28 03:38:05;;;;;;;6.70;6.03;;;;;;;5.49;78.43;96936.66;5093221;28;20214;-63
2021/04/28 03:40:32;;;;;;;6.63;5.93;;;;;;;5.48;79.02;96940.22;5092750;28;20214;-63
2021/04/28 03:42:58;;;;;;;7.50;6.07;;;;;;;5.47;79.01;96935.94;5092998;28;20212;-64
2021/04/28 03:45:24;;;;;;;7.87;6.30;;;;;;;5.45;79.68;96929.94;5093159;28;20244;-64
2021/04/28 03:47:50;;;;;;;8.53;6.70;;;;;;;5.47;79.94;96929.84;5091322;28;20698;-63
2021/04/28 03:50:16;;;;;;;7.30;6.37;;;;;;;5.47;79.55;96925.47;5093116;28;20214;-65
2021/04/28 03:52:42;;;;;;;7.67;6.17;;;;;;;5.47;78.63;96930.69;5093051;28;20618;-65
2021/04/28 03:55:10;;;;;;;7.67;5.83;;;;;;;5.45;79.52;96927.31;5092959;28;20239;-64
2021/04/28 03:57:37;;;;;;;7.20;5.87;;;;;;;5.45;79.66;96924.72;5092788;28;20218;-64
2021/04/28 04:00:05;;;;;;;8.07;6.30;;;;;;;5.44;78.81;96928.28;5093134;28;20219;-64
2021/04/28 04:02:31;;;;;;;7.23;6.37;;;;;;;5.39;79.45;96933.00;5093471;28;20209;-64
2021/04/28 04:04:57;;;;;;;7.23;6.27;;;;;;;5.41;80.08;96941.59;5093074;28;20229;-64
2021/04/28 04:07:23;;;;;;;11.03;6.97;;;;;;;5.42;80.37;96938.03;5093465;28;20214;-64
2021/04/28 04:09:49;;;;;;;8.40;6.70;;;;;;;5.43;80.66;96939.69;5093015;28;20308;-64
2021/04/28 04:12:15;;;;;;;9.37;7.00;;;;;;;5.41;81.44;96940.75;5092999;28;20214;-64
2021/04/28 04:14:42;;;;;;;9.97;6.77;;;;;;;5.36;80.58;96951.53;5090823;28;20774;-63
2021/04/28 04:17:08;;;;;;;8.07;6.30;;;;;;;5.36;80.98;96948.91;5092586;28;20662;-64
2021/04/28 04:19:35;;;;;;;8.47;6.43;;;;;;;5.44;80.81;96958.91;5092840;28;20267;-64
2021/04/28 04:22:00;;;;;;;9.47;7.13;;;;;;;5.48;79.14;96958.56;5092772;28;20218;-64
2021/04/28 04:24:27;;;;;;;7.80;6.50;;;;;;;5.64;78.59;96961.84;5092535;28;20224;-64
2021/04/28 04:26:53;;;;;;;11.13;6.63;;;;;;;5.73;78.12;96955.97;5092687;28;20236;-64
2021/04/28 04:29:19;;;;;;;12.00;7.47;;;;;;;5.74;77.68;96965.50;5092979;28;20206;-64
2021/04/28 04:31:46;;;;;;;9.00;6.70;;;;;;;5.75;78.72;96961.94;5092718;28;20214;-64
2021/04/28 04:34:11;;;;;;;9.17;6.47;;;;;;;5.78;78.64;96969.59;5093037;28;20214;-64
2021/04/28 04:36:37;;;;;;;9.03;6.97;;;;;;;5.80;79.34;96965.09;5092567;28;20260;-64
2021/04/28 04:39:05;;;;;;;9.77;7.37;;;;;;;5.82;78.86;96958.00;5091950;28;20309;-64
2021/04/28 04:41:31;;;;;;;8.53;6.77;;;;;;;5.88;79.27;96957.56;5091933;28;20218;-64
2021/04/28 04:43:57;;;;;;;10.17;6.97;;;;;;;5.93;78.61;96950.22;5092829;28;20209;-64
2021/04/28 04:46:23;;;;;;;7.50;6.70;;;;;;;6.01;78.14;96953.16;5092515;28;20717;-64
2021/04/28 04:48:50;;;;;;;10.73;6.90;;;;;;;6.11;77.48;96954.16;5092783;28;20300;-64
2021/04/28 04:51:16;;;;;;;9.27;6.50;;;;;;;6.12;78.73;96955.03;5092637;28;20264;-64
2021/04/28 04:53:42;;;;;;;8.90;6.70;;;;;;;6.15;78.29;96950.41;5094631;28;20621;-64
2021/04/28 04:56:08;;;;;;;7.37;6.23;;;;;;;6.19;78.04;96957.13;5096104;28;20232;-65
2021/04/28 04:58:34;;;;;;;9.27;6.57;;;;;;;6.25;78.21;96961.94;5096191;28;20218;-64
2021/04/28 05:01:00;;;;;;;7.73;6.27;;;;;;;6.29;77.53;96955.50;5095829;28;20254;-64
2021/04/28 05:03:26;;;;;;;7.87;6.27;;;;;;;6.38;77.76;96956.63;5095676;28;20680;-64
2021/04/28 05:05:53;;;;;;;10.33;6.60;;;;;;;6.52;76.87;96954.72;5094268;28;20315;-64
2021/04/28 05:08:18;;;;;;;7.93;6.10;;;;;;;6.65;77.47;96958.13;5095758;28;20267;-65
2021/04/28 05:10:44;;;;;;;8.33;6.27;;;;;;;6.75;75.37;96961.78;5096064;28;20666;-63
2021/04/28 05:13:11;;;;;;;7.97;6.10;;;;;;;6.86;73.63;96968.88;5095506;28;20284;-64
2021/04/28 05:15:37;;;;;;;6.97;6.17;;;;;;;6.98;72.49;96973.22;5095483;28;20690;-64
2021/04/28 05:18:04;;;;;;;11.80;6.57;;;;;;;7.07;71.85;96967.28;5095505;28;20266;-64
2021/04/28 05:20:30;;;;;;;6.67;5.90;;;;;;;7.19;71.71;96959.34;5095665;28;20210;-64
2021/04/28 05:22:57;;;;;;;8.30;6.37;;;;;;;7.33;71.93;96962.63;5095618;28;20256;-63
2021/04/28 05:25:23;;;;;;;10.37;6.43;;;;;;;7.46;70.95;96959.91;5095502;28;20240;-63
2021/04/28 05:27:49;;;;;;;10.33;6.97;;;;;;;7.59;70.06;96966.75;5095398;28;20698;-64
2021/04/28 05:30:16;;;;;;;8.87;6.90;;;;;;;7.75;70.47;96961.16;5095572;28;20214;-64
2021/04/28 05:32:43;;;;;;;8.93;7.70;;;;;;;7.91;71.32;96961.69;5093599;28;20214;-64
2021/04/28 05:35:11;;;;;;;11.57;7.67;;;;;;;8.06;71.33;96963.09;5095056;28;20707;-64
2021/04/28 05:37:37;;;;;;;8.87;7.27;;;;;;;8.21;71.60;96965.41;5095225;28;20577;-64
2021/04/28 05:40:06;;;;;;;11.00;7.40;;;;;;;8.35;71.16;96964.34;5095612;28;20266;-65
2021/04/28 05:42:32;;;;;;;8.93;7.50;;;;;;;8.57;70.41;96956.44;5095247;28;20236;-65
2021/04/28 05:44:58;;;;;;;9.40;7.73;;;;;;;9.15;69.79;96956.88;5095161;28;20573;-65
2021/04/28 05:47:24;;;;;;;13.67;8.33;;;;;;;10.06;66.40;96952.66;5095099;28;20207;-64
2021/04/28 05:49:51;;;;;;;11.97;8.07;;;;;;;11.00;63.25;96961.88;5095129;28;20272;-64
2021/04/28 05:52:17;;;;;;;11.80;7.90;;;;;;;11.84;60.12;96962.03;5094806;28;20207;-64
2021/04/28 05:54:43;;;;;;;10.90;8.53;;;;;;;12.51;58.18;96957.38;5094898;28;20206;-65
2021/04/28 05:57:10;;;;;;;11.80;8.70;;;;;;;13.04;55.49;96950.41;5094577;28;20725;-65
2021/04/28 05:59:36;;;;;;;11.47;9.10;;;;;;;13.63;53.53;96961.28;5093319;28;20670;-65
2021/04/28 06:02:02;;;;;;;12.77;9.07;;;;;;;14.14;52.01;96954.22;5094589;28;20215;-65
2021/04/28 06:04:29;;;;;;;14.30;9.47;;;;;;;14.52;51.05;96960.94;5094407;28;20240;-65
2021/04/28 06:06:55;;;;;;;12.13;9.13;;;;;;;14.83;50.10;96960.25;5094681;28;20248;-65
2021/04/28 06:09:20;;;;;;;13.03;9.80;;;;;;;15.17;49.03;96954.88;5094325;28;20213;-65
2021/04/28 06:11:46;;;;;;;12.83;9.20;;;;;;;15.48;47.06;96950.63;5094596;28;20296;-65
2021/04/28 06:14:13;;;;;;;10.53;8.60;;;;;;;15.83;46.41;96958.31;5094271;28;20284;-65
2021/04/28 06:16:39;;;;;;;12.37;7.67;;;;;;;16.18;45.89;96951.63;5094437;28;20221;-65
2021/04/28 06:19:05;;;;;;;9.57;7.57;;;;;;;16.45;45.25;96959.28;5094484;28;20306;-65
2021/04/28 06:21:31;;;;;;;10.53;8.43;;;;;;;16.56;43.61;96953.56;5094067;28;20232;-65
2021/04/28 06:23:58;;;;;;;12.57;9.13;;;;;;;16.57;44.29;96957.09;5092800;28;20222;-65
2021/04/28 06:26:24;;;;;;;10.73;8.83;;;;;;;16.40;46.17;96956.28;5094398;28;20590;-65
2021/04/28 06:28:50;;;;;;;11.90;8.67;;;;;;;16.01;46.95;96954.47;5094397;28;20238;-65
2021/04/28 06:31:16;;;;;;;9.50;7.97;;;;;;;15.06;49.45;96949.84;5094174;28;20215;-63
2021/04/28 06:33:43;;;;;;;9.93;8.20;;;;;;;14.07;52.07;96953.16;5092703;28;20207;-64
2021/04/28 06:36:10;;;;;;;12.20;7.97;;;;;;;13.36;54.37;96954.25;5091718;28;20218;-64
2021/04/28 06:38:36;;;;;;;11.67;8.53;;;;;;;12.93;56.47;96951.44;5094112;28;20210;-64
2021/04/28 06:41:02;;;;;;;12.73;8.77;;;;;;;12.69;56.99;96948.50;5094182;28;20226;-64
2021/04/28 06:43:28;;;;;;;10.73;8.43;;;;;;;12.50;57.56;96959.19;5093925;28;20234;-64
2021/04/28 06:45:54;;;;;;;10.87;8.93;;;;;;;12.45;61.81;96956.16;5093620;28;20398;-64
2021/04/28 06:48:21;;;;;;;12.93;8.33;;;;;;;12.44;62.76;96948.34;5093605;28;20262;-64
2021/04/28 06:50:47;;;;;;;14.63;9.10;;;;;;;12.49;63.20;96962.84;5092548;28;20599;-65
2021/04/28 06:53:13;;;;;;;11.20;9.13;;;;;;;12.43;61.24;96952.81;5093758;28;20217;-64
2021/04/28 06:55:39;;;;;;;11.37;8.90;;;;;;;12.47;61.00;96948.88;5093986;28;20237;-64
2021/04/28 06:58:05;;;;;;;10.33;8.90;;;;;;;12.52;62.01;96946.63;5093810;28;20253;-63
2021/04/28 07:00:31;;;;;;;10.90;8.50;;;;;;;12.53;60.48;96952.78;5093827;28;20560;-64
2021/04/28 07:02:58;;;;;;;12.07;9.67;;;;;;;12.60;62.55;96956.50;5093519;28;20213;-64
2021/04/28 07:05:25;;;;;;;13.03;9.20;;;;;;;12.70;61.90;96949.31;5093646;28;20245;-64
2021/04/28 07:07:51;;;;;;;14.60;9.73;;;;;;;12.81;65.63;96943.81;5093879;28;20210;-64
2021/04/28 07:10:18;;;;;;;13.33;9.53;;;;;;;12.86;64.36;96954.81;5093555;28;20213;-62
2021/04/28 07:12:44;;;;;;;12.30;9.80;;;;;;;13.00;65.31;96951.69;5093533;28;20259;-64
2021/04/28 07:15:11;;;;;;;13.17;10.23;;;;;;;13.12;65.05;96956.66;5092493;28;20241;-63
2021/04/28 07:17:37;;;;;;;13.80;9.90;;;;;;;13.20;64.79;96953.25;5091335;28;20210;-64
2021/04/28 07:20:06;;;;;;;12.93;9.80;;;;;;;13.26;63.70;96958.78;5093320;28;20294;-64
2021/04/28 07:22:32;;;;;;;14.57;9.40;;;;;;;13.49;62.71;96956.50;5093430;28;20206;-64
2021/04/28 07:24:58;;;;;;;17.33;9.50;;;;;;;13.53;63.66;96955.22;5092973;28;20217;-64
2021/04/28 07:27:24;;;;;;;14.03;9.57;;;;;;;13.59;63.47;96957.25;5093465;28;20211;-64
2021/04/28 07:29:50;;;;;;;10.90;8.93;;;;;;;13.70;57.84;96957.03;5093478;28;20759;-64
2021/04/28 07:32:17;;;;;;;13.87;10.23;;;;;;;13.82;61.97;96963.75;5093079;28;20225;-64
2021/04/28 07:34:43;;;;;;;13.13;9.80;;;;;;;13.81;57.88;96960.25;5092945;28;20211;-64
2021/04/28 07:37:09;;;;;;;12.17;8.87;;;;;;;13.80;57.63;96960.41;5093228;28;20207;-64
2021/04/28 07:39:36;;;;;;;14.00;9.67;;;;;;;13.90;60.44;96969.13;5092963;28;20275;-64
2021/04/28 07:42:02;;;;;;;11.60;9.43;;;;;;;14.03;59.41;96958.94;5091462;28;20216;-64
2021/04/28 07:44:30;;;;;;;11.40;9.50;;;;;;;14.09;57.27;96958.31;5093245;28;20218;-62
2021/04/28 07:46:57;;;;;;;10.60;9.00;;;;;;;14.27;60.70;96969.75;5092819;28;20284;-63
2021/04/28 07:49:23;;;;;;;13.73;8.70;;;;;;;14.35;57.85;96959.19;5092842;28;20754;-63
2021/04/28 07:51:49;;;;;;;12.20;9.10;;;;;;;14.48;56.94;96959.59;5093148;28;20236;-63
2021/04/28 07:54:15;;;;;;;12.37;9.07;;;;;;;14.55;58.81;96960.63;5093085;28;20206;-63
2021/04/28 07:56:42;;;;;;;12.27;9.73;;;;;;;14.68;58.52;96950.38;5093005;28;20211;-63
2021/04/28 07:59:08;;;;;;;14.20;9.37;;;;;;;14.92;60.92;96953.13;5093343;28;20206;-63
2021/04/28 08:01:34;;;;;;;12.73;9.53;;;;;;;14.98;57.67;96947.97;5092996;28;20237;-63
2021/04/28 08:04:00;;;;;;;12.97;9.43;;;;;;;15.20;58.26;96947.38;5092883;28;20215;-63
2021/04/28 08:06:26;;;;;;;13.53;9.27;;;;;;;15.44;57.36;96949.28;5092824;28;20278;-63
2021/04/28 08:08:52;;;;;;;12.57;9.10;;;;;;;15.46;57.17;96947.31;5091064;28;20696;-63
2021/04/28 08:11:18;;;;;;;11.37;9.27;;;;;;;15.58;55.07;96946.00;5092887;28;20207;-63
2021/04/28 08:13:47;;;;;;;12.17;8.47;;;;;;;15.60;54.33;96950.16;5092789;28;20300;-63
2021/04/28 08:16:13;;;;;;;11.13;8.60;;;;;;;15.79;55.78;96946.31;5092846;28;20211;-63
2021/04/28 08:18:39;;;;;;;11.60;8.33;;;;;;;15.77;53.89;96951.00;5092873;28;20221;-64
2021/04/28 08:21:05;;;;;;;12.87;9.10;;;;;;;16.01;56.41;96948.31;5092845;28;20219;-64
2021/04/28 08:23:31;;;;;;;13.10;9.40;;;;;;;16.12;54.46;96945.31;5092541;28;20206;-63
2021/04/28 08:25:57;;;;;;;12.37;9.30;;;;;;;16.08;52.60;96940.31;5092735;28;20231;-64
2021/04/28 08:28:23;;;;;;;12.73;9.57;;;;;;;16.33;54.55;96949.94;5095822;28;20683;-64
2021/04/28 08:30:50;;;;;;;11.00;9.00;;;;;;;16.34;53.46;96940.94;5096701;28;20242;-64
2021/04/28 08:33:16;;;;;;;11.90;9.33;;;;;;;16.45;52.85;96937.94;5096670;28;20230;-64
2021/04/28 08:35:42;;;;;;;12.43;9.03;;;;;;;16.53;53.01;96939.75;5094898;28;20300;-64
2021/04/28 08:38:08;;;;;;;11.23;8.93;;;;;;;16.55;51.50;96933.25;5096475;28;20237;-64
2021/04/28 08:40:35;;;;;;;12.80;9.13;;;;;;;16.62;51.72;96934.22;5096298;28;20256;-64
2021/04/28 08:43:01;;;;;;;14.23;9.53;;;;;;;16.50;46.47;96935.59;5096191;28;20215;-64
2021/04/28 08:45:27;;;;;;;12.93;9.43;;;;;;;16.78;50.00;96936.00;5096368;28;20235;-65
2021/04/28 08:47:54;;;;;;;11.87;9.23;;;;;;;16.92;51.42;96935.25;5096285;28;20589;-64
2021/04/28 08:50:20;;;;;;;13.20;9.30;;;;;;;16.99;49.33;96930.88;5096476;28;20242;-64
2021/04/28 08:52:46;;;;;;;11.73;9.43;;;;;;;17.28;51.56;96931.91;5096181;28;20211;-63
2021/04/28 08:55:13;;;;;;;14.97;9.93;;;;;;;17.37;52.19;96930.03;5095774;28;20207;-64
2021/04/28 08:57:39;;;;;;;13.73;10.07;;;;;;;17.52;54.51;96929.13;5096173;28;20276;-64
2021/04/28 09:00:07;;;;;;;13.23;10.07;;;;;;;17.67;53.60;96927.31;5094008;28;21148;-64
2021/04/28 09:02:33;;;;;;;14.83;10.50;;;;;;;17.80;50.73;96930.22;5096098;28;20226;-64
2021/04/28 09:05:06;;;;;;;12.17;9.53;;;;;;;17.66;47.88;96928.34;5095984;28;20242;-64
2021/04/28 09:07:32;;;;;;;12.93;9.83;;;;;;;17.42;44.48;96923.16;5095894;28;20214;-64
2021/04/28 09:10:05;;;;;;;12.57;9.37;;;;;;;17.50;50.33;96931.09;5095666;28;20214;-64
2021/04/28 09:12:31;;;;;;;14.57;9.90;;;;;;;17.60;49.00;96921.03;5095939;28;20211;-64
2021/04/28 09:14:57;;;;;;;13.83;10.37;;;;;;;17.77;49.93;96922.56;5095916;28;20231;-64
2021/04/28 09:17:23;;;;;;;13.00;9.23;;;;;;;17.69;45.99;96925.28;5095607;28;20211;-64
2021/04/28 09:19:54;;;;;;;13.40;9.90;;;;;;;17.72;45.74;96916.94;5095696;28;20229;-63
2021/04/28 09:22:22;;;;;;;15.23;9.97;;;;;;;17.82;47.72;96920.19;5095673;28;20253;-63
2021/04/28 09:24:50;;;;;;;14.10;10.37;;;;;;;17.92;48.62;96920.75;5095607;28;20211;-64
2021/04/28 09:27:31;;;;;;;17.47;9.97;;;;;;;18.10;47.53;96917.78;5093921;28;20243;-64
2021/04/28 09:29:57;;;;;;;12.43;9.57;;;;;;;18.19;47.95;96922.88;5095725;28;20240;-63
2021/04/28 09:32:30;;;;;;;14.43;10.03;;;;;;;18.06;40.25;96922.66;5095380;28;20207;-64
2021/04/28 09:35:12;;;;;;;15.50;10.57;;;;;;;17.91;39.52;96919.09;5095474;28;20210;-64
2021/04/28 09:37:51;;;;;;;14.00;10.80;;;;;;;17.92;39.35;96925.28;5095279;28;20241;-64
2021/04/28 09:40:17;;;;;;;14.60;9.53;;;;;;;18.18;42.48;96915.84;5094425;28;20211;-66
2021/04/28 09:42:51;;;;;;;13.30;9.40;;;;;;;18.30;38.77;96924.25;5095364;28;20207;-64
2021/04/28 09:45:36;;;;;;;14.20;10.40;;;;;;;18.23;36.74;96918.78;5095247;28;20202;-64
2021/04/28 09:48:03;;;;;;;14.33;10.00;;;;;;;18.26;37.92;96913.09;5095193;28;20225;-64
2021/04/28 09:50:29;;;;;;;14.37;10.33;;;;;;;18.30;36.94;96909.00;5094123;28;20217;-64
2021/04/28 09:52:56;;;;;;;13.17;10.17;;;;;;;18.27;37.65;96909.41;5092923;28;20211;-64
2021/04/28 09:55:22;;;;;;;16.27;10.33;;;;;;;18.36;39.12;96902.97;5094132;28;20285;-64
2021/04/28 09:57:51;;;;;;;11.67;8.97;;;;;;;18.32;36.47;96912.41;5094153;28;20217;-64
2021/04/28 10:00:20;;;;;;;9.87;7.60;;;;;;;18.51;34.56;96901.16;5094415;28;20275;-64
2021/04/28 10:02:57;;;;;;;12.47;8.70;;;;;;;18.67;33.88;96905.47;5094203;28;20290;-64
2021/04/28 10:05:25;;;;;;;15.37;9.73;;;;;;;18.72;37.50;96903.88;5094241;28;20232;-64
2021/04/28 10:08:05;;;;;;;13.37;9.90;;;;;;;18.84;40.41;96898.91;5094244;28;20218;-64
2021/04/28 10:10:33;;;;;;;14.27;10.17;;;;;;;18.85;36.32;96903.25;5093952;28;20260;-64
2021/04/28 10:12:59;;;;;;;13.40;9.33;;;;;;;18.89;37.80;96897.31;5093891;28;20217;-64
2021/04/28 10:15:25;;;;;;;13.43;9.27;;;;;;;19.03;38.42;96893.78;5093774;28;20243;-64
2021/04/28 10:17:52;;;;;;;10.80;8.57;;;;;;;19.06;41.09;96890.75;5094034;28;20210;-64
2021/04/28 10:20:18;;;;;;;12.10;8.77;;;;;;;19.18;37.60;96891.91;5092435;28;20211;-64
2021/04/28 10:22:44;;;;;;;11.77;8.63;;;;;;;19.29;34.15;96886.09;5094110;28;20215;-64
2021/04/28 10:25:12;;;;;;;11.47;8.90;;;;;;;19.32;34.23;96880.34;5093354;28;20581;-64
2021/04/28 10:27:39;;;;;;;11.60;8.93;;;;;;;19.35;35.81;96890.69;5093862;28;20219;-64
2021/04/28 10:30:09;;;;;;;15.73;8.77;;;;;;;19.33;33.26;96876.63;5093491;28;20669;-64
2021/04/28 10:32:35;;;;;;;10.60;8.20;;;;;;;19.26;33.93;96880.28;5093416;28;20210;-64
2021/04/28 10:35:06;;;;;;;12.17;7.97;;;;;;;19.43;38.65;96874.50;5093799;28;20618;-63
2021/04/28 10:37:35;;;;;;;15.77;8.50;;;;;;;19.67;41.94;96873.25;5093717;28;20207;-63
2021/04/28 10:40:02;;;;;;;10.83;8.73;;;;;;;19.82;38.71;96872.16;5093305;28;20676;-64
2021/04/28 10:42:34;;;;;;;11.43;8.73;;;;;;;19.99;36.96;96872.72;5093277;28;20214;-64
2021/04/28 10:45:02;;;;;;;15.83;8.80;;;;;;;19.97;37.40;96867.56;5091781;28;20203;-64
2021/04/28 10:47:40;;;;;;;13.30;9.97;;;;;;;19.91;33.61;96865.66;5093368;28;20575;-64
2021/04/28 10:50:21;;;;;;;11.47;8.73;;;;;;;19.80;33.75;96858.13;5093345;28;20633;-64
2021/04/28 10:52:53;;;;;;;11.37;8.20;;;;;;;19.76;32.92;96862.22;5093469;28;20246;-64
2021/04/28 10:55:42;;;;;;;10.80;8.03;;;;;;;19.92;33.58;96861.09;5092970;28;20225;-64
2021/04/28 10:58:34;;;;;;;11.20;9.07;;;;;;;19.84;32.11;96858.56;5093197;28;20565;-65
2021/04/28 11:01:14;;;;;;;11.23;8.17;;;;;;;19.79;32.40;96853.78;5093303;28;20300;-64
2021/04/28 11:03:44;;;;;;;10.10;8.30;;;;;;;19.82;31.36;96856.06;5093132;28;20256;-64
2021/04/28 11:06:35;;;;;;;11.63;9.07;;;;;;;20.08;33.64;96845.59;5093051;28;20247;-64
2021/04/28 11:09:17;;;;;;;11.43;8.17;;;;;;;20.08;34.91;96850.97;5093039;28;20210;-64
2021/04/28 11:11:46;;;;;;;11.27;8.83;;;;;;;20.05;33.52;96851.31;5091316;28;20259;-64
2021/04/28 11:14:40;;;;;;;11.67;7.97;;;;;;;19.91;32.38;96849.56;5093168;28;20240;-64
2021/04/28 11:17:26;;;;;;;11.33;8.53;;;;;;;19.65;34.17;96846.66;5082506;28;20285;-64
2021/04/28 11:19:54;;;;;;;8.33;7.13;;;;;;;19.47;38.68;96846.31;5092900;28;20211;-64
2021/04/28 11:22:22;;;;;;;12.17;8.00;;;;;;;19.31;38.56;96846.53;5092466;28;20740;-64
2021/04/28 11:25:07;;;;;;;14.47;8.60;;;;;;;19.27;39.98;96847.94;5092807;28;20289;-64
2021/04/28 11:27:52;;;;;;;10.50;8.00;;;;;;;19.18;39.69;96841.03;5084973;28;20632;-64
2021/04/28 11:30:30;;;;;;;10.90;8.37;;;;;;;19.02;37.94;96846.59;5093006;28;20211;-64
2021/04/28 11:33:08;;;;;;;13.90;8.60;;;;;;;18.88;38.47;96850.16;5092758;28;20205;-64
2021/04/28 11:35:35;;;;;;;10.43;7.63;;;;;;;18.72;38.88;96845.00;5092396;28;20691;-64